Time;durP1;ratioP1;P1;durP2;ratioP2;P2;SDS_P1;SDS_P2;PMS_P1;PMS_P2;Temp;Humidity;BMP_temperature;BMP_pressure;BME280_temperature;BME280_humidity;BME280_pressure;Samples;Min_cycle;Max_cycle;Signal;HPM_P1;HPM_P2
2021/06/15 00:00:44;;;;;;;4.10;2.75;;;26.90;36.20;;;;;;6230313;28;20100;-74
2021/06/15 00:03:45;;;;;;;5.55;2.72;;;26.90;36.20;;;;;;6256987;28;20029;-75
2021/06/15 00:06:46;;;;;;;4.25;2.65;;;26.90;36.20;;;;;;6259234;28;20037;-75
2021/06/15 00:09:47;;;;;;;6.80;2.45;;;26.80;36.20;;;;;;6277884;28;20489;-76
2021/06/15 00:12:49;;;;;;;6.38;2.40;;;26.80;36.20;;;;;;6277565;28;20036;-75
2021/06/15 00:15:53;;;;;;;4.80;2.67;;;26.80;36.20;;;;;;6259971;28;20116;-75
2021/06/15 00:18:54;;;;;;;3.88;2.60;;;26.70;36.20;;;;;;6276785;28;20043;-75
2021/06/15 00:21:55;;;;;;;3.55;2.30;;;26.70;36.20;;;;;;6276447;28;20029;-74
2021/06/15 00:24:56;;;;;;;5.85;2.17;;;26.60;36.30;;;;;;6276418;28;20080;-75
2021/06/15 00:27:57;;;;;;;9.13;2.72;;;26.60;36.50;;;;;;6259996;28;20037;-75
2021/06/15 00:31:00;;;;;;;4.22;2.58;;;26.50;36.50;;;;;;6259590;28;20060;-74
2021/06/15 00:34:01;;;;;;;5.13;2.22;;;26.50;36.60;;;;;;6258613;28;20473;-74
2021/06/15 00:37:02;;;;;;;4.95;1.88;;;26.50;36.70;;;;;;6259694;28;20537;-75
2021/06/15 00:40:04;;;;;;;4.55;2.30;;;26.50;36.70;;;;;;6275831;28;20039;-75
2021/06/15 00:43:06;;;;;;;3.63;2.28;;;26.40;36.70;;;;;;6277248;28;20076;-75
2021/06/15 00:46:07;;;;;;;4.65;2.40;;;26.40;36.80;;;;;;6276120;28;20542;-75
2021/06/15 00:49:09;;;;;;;4.63;2.38;;;26.40;36.90;;;;;;6276255;28;20094;-75
2021/06/15 00:52:12;;;;;;;4.00;1.92;;;26.40;37.00;;;;;;6262155;28;20036;-75
2021/06/15 00:55:14;;;;;;;4.53;2.20;;;26.30;37.20;;;;;;6300473;28;20043;-74
2021/06/15 00:58:15;;;;;;;3.20;2.10;;;26.30;37.20;;;;;;6267131;28;20051;-75
2021/06/15 01:01:16;;;;;;;2.80;1.88;;;26.20;37.30;;;;;;6283710;28;20051;-75
2021/06/15 01:04:20;;;;;;;3.25;2.13;;;26.20;37.40;;;;;;6261378;28;20074;-76
2021/06/15 01:07:38;;;;;;;4.07;1.73;;;26.10;37.50;;;;;;6272678;28;20075;-74
2021/06/15 01:10:51;;;;;;;2.50;2.00;;;26.10;37.70;;;;;;6240253;28;20057;-75
2021/06/15 01:14:07;;;;;;;2.50;1.63;;;26.00;37.80;;;;;;6257421;28;20466;-75
2021/06/15 01:17:17;;;;;;;3.08;1.90;;;26.00;38.00;;;;;;6257299;28;20354;-76
2021/06/15 01:20:23;;;;;;;2.78;1.63;;;26.00;38.20;;;;;;6256856;28;20025;-75
2021/06/15 01:23:36;;;;;;;2.70;1.90;;;25.90;38.40;;;;;;6270457;28;20354;-75
2021/06/15 01:27:03;;;;;;;3.00;1.83;;;25.90;38.60;;;;;;6283236;28;20131;-75
2021/06/15 01:30:07;;;;;;;2.17;1.75;;;25.80;38.80;;;;;;6279364;28;20044;-75
2021/06/15 01:33:13;;;;;;;2.17;1.60;;;25.80;39.00;;;;;;6267177;28;20029;-75
2021/06/15 01:36:18;;;;;;;3.80;2.03;;;25.70;39.10;;;;;;6255341;28;20044;-75
2021/06/15 01:39:25;;;;;;;4.13;1.70;;;25.70;39.40;;;;;;6254754;28;20033;-75
2021/06/15 01:42:31;;;;;;;2.28;1.70;;;25.70;39.40;;;;;;6275719;28;20033;-75
2021/06/15 01:45:39;;;;;;;3.92;1.90;;;25.60;39.40;;;;;;6238118;28;20612;-74
2021/06/15 01:48:53;;;;;;;5.68;2.10;;;25.60;39.80;;;;;;6254813;28;20044;-75
2021/06/15 01:51:56;;;;;;;6.00;1.88;;;25.60;40.00;;;;;;6240294;28;20422;-75
2021/06/15 01:55:00;;;;;;;4.95;1.63;;;25.60;40.00;;;;;;6275847;28;24833;-75
2021/06/15 01:58:11;;;;;;;4.07;1.75;;;25.60;40.00;;;;;;6254516;28;20036;-75
2021/06/15 02:01:14;;;;;;;4.32;1.80;;;25.50;39.80;;;;;;6269364;28;20036;-75
2021/06/15 02:04:21;;;;;;;9.55;1.70;;;25.40;39.70;;;;;;6244215;28;20049;-74
2021/06/15 02:07:31;;;;;;;3.17;1.48;;;25.40;39.60;;;;;;6229649;28;20041;-75
2021/06/15 02:10:35;;;;;;;3.40;2.00;;;25.30;39.60;;;;;;6230550;28;20029;-75
2021/06/15 02:13:49;;;;;;;2.83;1.58;;;25.40;39.70;;;;;;6236418;28;20033;-74
2021/06/15 02:17:14;;;;;;;2.40;1.63;;;25.40;39.80;;;;;;6244045;28;20041;-76
2021/06/15 02:20:43;;;;;;;1.73;1.40;;;25.30;39.80;;;;;;6243733;28;20454;-75
2021/06/15 02:23:47;;;;;;;1.48;1.38;;;25.30;40.00;;;;;;6226172;28;20030;-75
2021/06/15 02:26:50;;;;;;;3.13;1.60;;;25.30;40.00;;;;;;6244176;28;20037;-75
2021/06/15 02:29:56;;;;;;;2.08;1.58;;;25.20;40.00;;;;;;6243872;28;20048;-75
2021/06/15 02:33:06;;;;;;;3.47;2.00;;;25.30;40.10;;;;;;6248019;28;20025;-74
2021/06/15 02:36:21;;;;;;;1.83;1.60;;;25.30;40.10;;;;;;6252140;28;20029;-77
2021/06/15 02:39:27;;;;;;;2.90;2.00;;;25.20;40.20;;;;;;6258767;28;20036;-74
2021/06/15 02:42:29;;;;;;;2.65;1.70;;;25.30;40.30;;;;;;6252199;28;20032;-74
2021/06/15 02:45:35;;;;;;;2.33;1.75;;;25.20;40.40;;;;;;6252607;28;20036;-74
2021/06/15 02:48:39;;;;;;;3.00;1.98;;;25.30;40.60;;;;;;6267524;28;20461;-75
2021/06/15 02:51:51;;;;;;;8.00;1.60;;;25.30;40.80;;;;;;6243630;28;20058;-75
2021/06/15 02:55:01;;;;;;;3.42;1.73;;;25.20;40.90;;;;;;6236024;28;20033;-75
2021/06/15 02:58:05;;;;;;;2.28;1.50;;;25.20;41.10;;;;;;6247651;28;20064;-75
2021/06/15 03:01:06;;;;;;;2.72;1.92;;;25.20;41.20;;;;;;6269254;28;20043;-75
2021/06/15 03:04:12;;;;;;;1.88;1.67;;;25.20;41.40;;;;;;6252332;28;20109;-75
2021/06/15 03:07:14;;;;;;;4.07;1.83;;;25.20;41.50;;;;;;6252353;28;20479;-75
2021/06/15 03:10:22;;;;;;;3.40;1.90;;;25.20;41.60;;;;;;6252642;28;20048;-75
2021/06/15 03:13:32;;;;;;;3.45;1.83;;;25.10;41.80;;;;;;6235567;28;20043;-75
2021/06/15 03:16:34;;;;;;;3.88;1.88;;;25.10;41.90;;;;;;6252133;28;20040;-74
2021/06/15 03:19:56;;;;;;;3.63;1.55;;;25.00;42.10;;;;;;6251658;28;20036;-75
2021/06/15 03:23:13;;;;;;;2.45;1.75;;;25.00;42.30;;;;;;6251300;28;20047;-75
2021/06/15 03:26:40;;;;;;;3.20;1.80;;;25.00;42.40;;;;;;6251716;28;20049;-75
2021/06/15 03:29:46;;;;;;;3.23;1.90;;;25.00;42.40;;;;;;6267602;28;20035;-76
2021/06/15 03:33:08;;;;;;;2.50;1.83;;;24.90;42.60;;;;;;6251080;28;20047;-76
2021/06/15 03:36:11;;;;;;;3.97;1.88;;;24.90;42.80;;;;;;6250261;28;20044;-76
2021/06/15 03:39:16;;;;;;;5.45;2.00;;;24.80;43.10;;;;;;6251715;28;20033;-76
2021/06/15 03:42:21;;;;;;;2.25;1.92;;;24.80;43.20;;;;;;6251225;28;20044;-76
2021/06/15 03:45:38;;;;;;;4.53;2.20;;;24.70;43.30;;;;;;6250985;28;20040;-76
2021/06/15 03:48:46;;;;;;;2.30;1.80;;;24.70;43.60;;;;;;6269723;28;20024;-75
2021/06/15 03:51:52;;;;;;;8.73;2.08;;;24.60;43.70;;;;;;6270236;28;20089;-76
2021/06/15 03:54:55;;;;;;;3.47;1.95;;;24.60;43.70;;;;;;6276077;28;20039;-76
2021/06/15 03:57:58;;;;;;;3.67;2.00;;;24.60;43.90;;;;;;6277883;28;20040;-76
2021/06/15 04:01:01;;;;;;;3.20;2.13;;;24.60;44.10;;;;;;6276012;28;20048;-76
2021/06/15 04:04:07;;;;;;;2.88;1.98;;;24.60;44.00;;;;;;6263612;28;20033;-76
2021/06/15 04:07:16;;;;;;;3.30;2.05;;;24.60;44.20;;;;;;6253124;28;20056;-76
2021/06/15 04:10:19;;;;;;;5.63;2.13;;;24.60;44.20;;;;;;6242691;28;20037;-76
2021/06/15 04:13:31;;;;;;;3.50;2.00;;;24.70;44.40;;;;;;6289285;28;20175;-76
2021/06/15 04:16:32;;;;;;;4.78;2.00;;;24.70;44.40;;;;;;6265371;28;20053;-76
2021/06/15 04:19:42;;;;;;;2.88;2.25;;;24.70;44.40;;;;;;6284081;28;20037;-74
2021/06/15 04:22:48;;;;;;;5.95;2.28;;;24.70;44.20;;;;;;6263173;28;20029;-75
2021/06/15 04:25:49;;;;;;;3.40;2.13;;;24.70;44.20;;;;;;6275319;28;20037;-75
2021/06/15 04:28:50;;;;;;;3.40;2.15;;;24.70;44.20;;;;;;6253055;28;20024;-75
2021/06/15 04:31:55;;;;;;;5.13;2.03;;;24.80;44.30;;;;;;6272971;28;20060;-75
2021/06/15 04:35:02;;;;;;;3.60;2.08;;;24.80;44.30;;;;;;6252259;28;20044;-76
2021/06/15 04:38:09;;;;;;;12.43;2.35;;;24.80;44.30;;;;;;6253190;28;20037;-74
2021/06/15 04:41:15;;;;;;;4.93;2.42;;;24.80;44.30;;;;;;6243804;28;20128;-76
2021/06/15 04:44:21;;;;;;;3.08;2.42;;;24.80;44.40;;;;;;6253633;28;20075;-76
2021/06/15 04:47:29;;;;;;;4.80;2.00;;;24.90;44.40;;;;;;6270397;28;20136;-76
2021/06/15 04:50:31;;;;;;;2.80;2.23;;;24.90;44.40;;;;;;6253518;28;20482;-76
2021/06/15 04:53:37;;;;;;;4.97;2.58;;;25.00;44.40;;;;;;6260166;28;20305;-76
2021/06/15 04:56:42;;;;;;;4.72;2.13;;;25.00;44.20;;;;;;6299141;28;20085;-75
2021/06/15 04:59:47;;;;;;;2.38;1.83;;;25.00;44.20;;;;;;6282479;28;20477;-75
2021/06/15 05:02:49;;;;;;;3.80;2.38;;;25.00;44.20;;;;;;6265033;28;20115;-75
2021/06/15 05:05:54;;;;;;;13.63;2.50;;;24.90;44.20;;;;;;6233648;28;20042;-75
2021/06/15 05:08:59;;;;;;;4.20;2.50;;;24.90;44.30;;;;;;6251892;28;20033;-75
2021/06/15 05:12:01;;;;;;;6.90;2.58;;;24.90;44.30;;;;;;6258284;28;20386;-75
2021/06/15 05:15:09;;;;;;;4.18;2.60;;;24.90;44.30;;;;;;6256882;28;20037;-75
2021/06/15 05:18:10;;;;;;;3.80;2.10;;;24.90;44.30;;;;;;6247975;28;20072;-75
2021/06/15 05:21:16;;;;;;;7.80;2.78;;;25.00;44.40;;;;;;6257754;28;20033;-75
2021/06/15 05:24:40;;;;;;;13.57;3.17;;;25.00;44.40;;;;;;6256174;28;20091;-75
2021/06/15 05:27:41;;;;;;;8.70;2.25;;;25.00;44.40;;;;;;6264823;28;20120;-77
2021/06/15 05:30:42;;;;;;;6.72;2.72;;;25.10;44.40;;;;;;6261158;28;20090;-75
2021/06/15 05:33:44;;;;;;;12.98;2.97;;;25.20;44.60;;;;;;6255375;28;20033;-76
2021/06/15 05:36:45;;;;;;;5.43;3.03;;;25.20;44.80;;;;;;6253196;28;20052;-75
2021/06/15 05:39:47;;;;;;;11.85;2.35;;;25.20;44.80;;;;;;6255393;28;20037;-75
2021/06/15 05:42:48;;;;;;;5.03;1.92;;;25.30;44.70;;;;;;6273921;28;20112;-75
2021/06/15 05:45:49;;;;;;;5.43;2.00;;;25.30;44.50;;;;;;6270957;28;20037;-76
2021/06/15 05:48:50;;;;;;;9.57;2.30;;;25.40;44.40;;;;;;6254372;28;20099;-76
2021/06/15 05:52:02;;;;;;;6.78;2.38;;;25.50;44.30;;;;;;6254303;28;20044;-76
2021/06/15 05:55:03;;;;;;;11.65;2.10;;;25.50;44.20;;;;;;6285303;28;20096;-75
2021/06/15 05:58:04;;;;;;;9.68;2.67;;;25.60;44.10;;;;;;6289009;28;20524;-75
2021/06/15 06:01:05;;;;;;;3.05;2.10;;;25.60;43.90;;;;;;6279477;28;20040;-75
2021/06/15 06:04:09;;;;;;;3.33;2.00;;;25.70;43.90;;;;;;6273874;28;20041;-75
2021/06/15 06:10:30;;;;;;;6.50;2.40;;;25.80;43.70;;;;;;6273278;28;20048;-76
2021/06/15 06:13:31;;;;;;;9.25;2.40;;;25.80;43.50;;;;;;6270210;28;20414;-75
2021/06/15 06:16:33;;;;;;;5.53;2.58;;;25.90;43.40;;;;;;6278789;28;20046;-76
2021/06/15 06:19:35;;;;;;;10.02;3.08;;;26.00;43.20;;;;;;6295859;28;20029;-75
2021/06/15 06:22:37;;;;;;;12.18;2.85;;;26.10;43.10;;;;;;6278847;28;20389;-75
2021/06/15 06:25:40;;;;;;;3.90;2.40;;;26.20;43.00;;;;;;6269234;28;20048;-75
2021/06/15 06:28:41;;;;;;;10.25;2.60;;;26.20;42.80;;;;;;6279646;28;20090;-75
2021/06/15 06:31:42;;;;;;;41.80;5.00;;;26.30;42.80;;;;;;6261847;28;20043;-75
2021/06/15 06:34:43;;;;;;;24.92;3.22;;;26.30;42.60;;;;;;6253339;28;20040;-75
2021/06/15 06:37:45;;;;;;;11.32;2.67;;;26.30;42.60;;;;;;6253842;28;20373;-75
2021/06/15 06:40:46;;;;;;;5.55;2.42;;;26.40;42.60;;;;;;6270971;28;20029;-76
2021/06/15 06:43:48;;;;;;;6.90;2.15;;;26.40;42.60;;;;;;6252742;28;20037;-75
2021/06/15 06:46:49;;;;;;;11.07;2.50;;;26.50;42.40;;;;;;6253775;28;20045;-76
2021/06/15 06:49:50;;;;;;;6.60;2.35;;;26.60;42.30;;;;;;6235731;28;20033;-75
2021/06/15 06:52:51;;;;;;;4.38;2.20;;;26.70;42.20;;;;;;6270712;28;20057;-76
2021/06/15 06:55:52;;;;;;;3.70;2.20;;;26.80;42.00;;;;;;6273390;28;20028;-76
2021/06/15 06:58:54;;;;;;;4.63;2.60;;;26.90;41.90;;;;;;6277551;28;20456;-76
2021/06/15 07:01:55;;;;;;;5.38;2.40;;;27.00;41.70;;;;;;6274707;28;20055;-76
2021/06/15 07:04:56;;;;;;;8.85;2.50;;;27.10;41.50;;;;;;6228813;28;20033;-76
2021/06/15 07:07:57;;;;;;;12.02;2.40;;;27.20;41.50;;;;;;6227784;28;20133;-77
2021/06/15 07:10:58;;;;;;;10.32;2.70;;;27.30;42.10;;;;;;6268041;28;20036;-76
2021/06/15 07:13:59;;;;;;;7.40;2.35;;;27.40;41.30;;;;;;6252211;28;20048;-76
2021/06/15 07:17:00;;;;;;;6.70;2.22;;;27.50;41.20;;;;;;6251803;28;20327;-77
2021/06/15 07:20:02;;;;;;;4.95;2.88;;;27.60;41.00;;;;;;6234920;28;20045;-77
2021/06/15 07:23:05;;;;;;;10.38;3.10;;;27.70;41.40;;;;;;6269161;28;20048;-76
2021/06/15 07:26:06;;;;;;;8.93;2.70;;;27.80;40.60;;;;;;6275332;28;20044;-76
2021/06/15 07:29:07;;;;;;;23.35;4.40;;;28.00;40.50;;;;;;6294451;28;20033;-76
2021/06/15 07:32:08;;;;;;;12.70;4.43;;;28.20;40.40;;;;;;6271050;28;20041;-76
2021/06/15 07:35:10;;;;;;;33.42;4.05;;;28.40;40.30;;;;;;6251230;28;20076;-75
2021/06/15 07:38:14;;;;;;;3.22;2.25;;;28.50;40.00;;;;;;6251294;28;20036;-75
2021/06/15 07:41:14;;;;;;;7.25;2.25;;;28.70;39.50;;;;;;6270025;28;20041;-75
2021/06/15 07:44:16;;;;;;;5.18;2.60;;;28.80;39.20;;;;;;6252665;28;20361;-77
2021/06/15 07:47:17;;;;;;;6.65;2.85;;;28.90;39.00;;;;;;6269577;28;20045;-76
2021/06/15 07:50:18;;;;;;;16.45;3.22;;;29.00;38.90;;;;;;6255313;28;20404;-75
2021/06/15 07:53:19;;;;;;;3.75;2.25;;;29.10;38.70;;;;;;6294441;28;20119;-75
2021/06/15 07:56:20;;;;;;;10.57;3.13;;;29.10;38.40;;;;;;6276282;28;20078;-76
2021/06/15 07:59:21;;;;;;;19.20;6.75;;;29.20;38.30;;;;;;6284767;28;20056;-76
2021/06/15 08:02:22;;;;;;;5.25;2.28;;;29.30;38.00;;;;;;6271011;28;20029;-76
2021/06/15 08:05:23;;;;;;;4.38;2.45;;;29.50;37.80;;;;;;6270073;28;20090;-76
2021/06/15 08:08:25;;;;;;;4.47;2.65;;;29.60;37.30;;;;;;6252923;28;20546;-77
2021/06/15 08:11:26;;;;;;;7.97;2.58;;;29.60;37.20;;;;;;6270436;28;20037;-76
2021/06/15 08:14:27;;;;;;;4.95;2.80;;;29.60;36.80;;;;;;6275820;28;20115;-75
2021/06/15 08:17:28;;;;;;;5.68;2.67;;;29.70;36.60;;;;;;6252239;28;20071;-75
2021/06/15 08:20:29;;;;;;;2.67;2.08;;;29.90;36.40;;;;;;6285848;28;20029;-76
2021/06/15 08:23:30;;;;;;;17.17;3.65;;;30.10;36.10;;;;;;6272026;28;20049;-75
2021/06/15 08:26:31;;;;;;;8.95;2.38;;;30.30;35.60;;;;;;6260847;28;20048;-76
2021/06/15 08:29:32;;;;;;;8.77;2.13;;;30.60;35.10;;;;;;6248996;28;20029;-75
2021/06/15 08:32:34;;;;;;;5.30;2.13;;;30.90;34.60;;;;;;6270949;28;20037;-76
2021/06/15 08:35:35;;;;;;;5.20;2.00;;;31.20;34.10;;;;;;6256753;28;20037;-76
2021/06/15 08:38:36;;;;;;;6.53;2.70;;;31.40;33.90;;;;;;6256060;28;20416;-75
2021/06/15 08:41:38;;;;;;;6.15;2.58;;;31.30;34.00;;;;;;6256927;28;20116;-76
2021/06/15 08:44:39;;;;;;;3.58;2.55;;;31.20;34.10;;;;;;6257151;28;20043;-76
2021/06/15 08:47:43;;;;;;;9.88;2.08;;;31.20;34.10;;;;;;6255303;28;20385;-75
2021/06/15 08:50:44;;;;;;;3.13;2.35;;;31.10;34.10;;;;;;6258580;28;20064;-77
2021/06/15 08:53:50;;;;;;;8.43;4.38;;;31.00;34.10;;;;;;6242222;28;20040;-76
2021/06/15 08:56:51;;;;;;;20.65;3.15;;;30.90;34.20;;;;;;6272404;28;20125;-76
2021/06/15 08:59:52;;;;;;;7.43;2.25;;;30.90;34.30;;;;;;6283112;28;20028;-76
2021/06/15 09:02:53;;;;;;;9.15;3.47;;;31.00;34.30;;;;;;6264354;28;20087;-76
2021/06/15 09:05:56;;;;;;;6.93;3.30;;;31.10;34.10;;;;;;6250537;28;20041;-76
2021/06/15 09:08:59;;;;;;;6.72;2.85;;;31.30;33.80;;;;;;6266414;28;20021;-76
2021/06/15 09:12:00;;;;;;;4.55;2.50;;;31.50;33.70;;;;;;6233217;28;20104;-75
2021/06/15 09:15:01;;;;;;;5.68;2.60;;;31.70;33.60;;;;;;6250075;28;20114;-75
2021/06/15 09:18:03;;;;;;;7.93;2.50;;;31.70;33.40;;;;;;6233528;28;20045;-76
2021/06/15 09:21:05;;;;;;;7.30;2.47;;;31.70;33.50;;;;;;6250218;28;20470;-76
2021/06/15 09:24:54;;;;;;;6.00;2.45;;;31.70;33.50;;;;;;6249594;28;20045;-74
2021/06/15 09:27:57;;;;;;;4.53;1.83;;;31.70;33.60;;;;;;6233969;28;20045;-75
2021/06/15 09:31:04;;;;;;;8.50;2.10;;;31.70;33.20;;;;;;6271211;28;20040;-75
2021/06/15 09:34:15;;;;;;;6.20;2.25;;;31.70;33.10;;;;;;6253028;28;20047;-75
2021/06/15 09:37:17;;;;;;;6.30;2.28;;;31.70;33.30;;;;;;6252885;28;20036;-75
2021/06/15 09:40:35;;;;;;;9.75;2.40;;;31.80;33.40;;;;;;6269563;28;20045;-76
2021/06/15 09:43:36;;;;;;;3.67;2.08;;;31.80;33.50;;;;;;6257094;28;20037;-75
2021/06/15 09:46:48;;;;;;;9.30;2.63;;;31.90;33.50;;;;;;6255989;28;20033;-75
2021/06/15 09:49:49;;;;;;;7.97;2.75;;;31.90;33.50;;;;;;6253334;28;20059;-75
2021/06/15 09:52:51;;;;;;;7.90;2.13;;;31.90;33.50;;;;;;6254515;28;20408;-77
2021/06/15 09:55:53;;;;;;;8.55;4.40;;;32.00;33.40;;;;;;6259897;28;20041;-76
2021/06/15 09:59:01;;;;;;;3.92;2.10;;;32.00;33.20;;;;;;6278240;28;20067;-76
2021/06/15 10:02:03;;;;;;;3.45;2.20;;;32.00;33.30;;;;;;6273999;28;20466;-76
2021/06/15 10:05:19;;;;;;;6.30;2.20;;;32.10;33.30;;;;;;6262929;28;20045;-77
2021/06/15 10:08:20;;;;;;;2.97;2.10;;;32.10;33.50;;;;;;6262933;28;20111;-75
2021/06/15 10:11:21;;;;;;;3.85;2.42;;;32.10;33.60;;;;;;6246160;28;20037;-75
2021/06/15 10:14:24;;;;;;;5.00;1.95;;;32.20;33.60;;;;;;6246384;28;20097;-77
2021/06/15 10:17:25;;;;;;;4.03;2.38;;;32.20;33.60;;;;;;6247495;28;20443;-76
2021/06/15 10:20:28;;;;;;;3.53;2.30;;;32.30;33.70;;;;;;6262768;28;20025;-77
2021/06/15 10:23:29;;;;;;;6.78;2.90;;;32.30;33.70;;;;;;6276565;28;20043;-76
2021/06/15 10:26:31;;;;;;;5.10;2.33;;;32.30;33.50;;;;;;6278797;28;20040;-77
2021/06/15 10:29:35;;;;;;;8.23;4.20;;;32.30;33.40;;;;;;6262424;28;20427;-76
2021/06/15 10:32:58;;;;;;;11.15;2.22;;;32.40;33.30;;;;;;6271003;28;20114;-76
2021/06/15 10:36:01;;;;;;;6.68;2.10;;;32.50;33.80;;;;;;6257628;28;20037;-77
2021/06/15 10:39:06;;;;;;;7.22;2.28;;;32.60;33.00;;;;;;6272064;28;20048;-79
2021/06/15 10:42:11;;;;;;;2.65;1.77;;;32.70;33.00;;;;;;6264941;28;20040;-75
2021/06/15 10:45:13;;;;;;;7.63;2.25;;;32.70;33.00;;;;;;6273888;28;20033;-76
2021/06/15 10:48:16;;;;;;;8.40;2.20;;;32.80;33.00;;;;;;6256425;28;20041;-76
2021/06/15 10:51:27;;;;;;;3.60;2.35;;;32.90;33.20;;;;;;6258000;28;20032;-77
2021/06/15 10:54:42;;;;;;;2.67;2.08;;;32.90;33.20;;;;;;6278423;28;20079;-77
2021/06/15 10:57:53;;;;;;;9.70;2.50;;;33.00;33.10;;;;;;6244143;28;20052;-76
2021/06/15 11:00:54;;;;;;;3.15;2.33;;;33.10;33.00;;;;;;6245211;28;20561;-76
2021/06/15 11:03:57;;;;;;;3.60;2.13;;;33.10;33.00;;;;;;6269085;28;20039;-76
2021/06/15 11:06:59;;;;;;;13.85;2.55;;;33.40;32.80;;;;;;6236162;28;20151;-76
2021/06/15 11:10:04;;;;;;;4.30;2.47;;;34.60;31.50;;;;;;6253462;28;20055;-76
2021/06/15 11:13:07;;;;;;;6.45;2.05;;;35.80;29.90;;;;;;6254492;28;20037;-76
2021/06/15 11:16:39;;;;;;;2.42;2.13;;;36.80;28.80;;;;;;6253772;28;20045;-76
2021/06/15 11:19:41;;;;;;;4.00;2.00;;;37.60;28.00;;;;;;6267346;28;20082;-76
2021/06/15 11:23:23;;;;;;;7.72;2.30;;;38.20;27.30;;;;;;6267711;28;20370;-76
2021/06/15 11:26:34;;;;;;;5.32;2.22;;;38.80;27.00;;;;;;6247499;28;20403;-76
2021/06/15 11:29:41;;;;;;;4.32;2.20;;;39.40;26.20;;;;;;6234524;28;20060;-76
2021/06/15 11:33:02;;;;;;;6.90;2.13;;;39.70;25.60;;;;;;6247894;28;20495;-76
2021/06/15 11:36:04;;;;;;;9.23;2.38;;;39.90;25.40;;;;;;6243240;28;20037;-76
2021/06/15 11:39:29;;;;;;;3.45;2.40;;;40.30;25.10;;;;;;6244053;28;20045;-76
2021/06/15 11:42:30;;;;;;;5.32;2.67;;;40.60;24.90;;;;;;6243618;28;20080;-76
2021/06/15 11:45:44;;;;;;;6.50;2.30;;;40.80;24.70;;;;;;6243538;28;20121;-76
2021/06/15 11:48:45;;;;;;;6.57;2.05;;;41.10;24.50;;;;;;6251246;28;20040;-76
2021/06/15 11:51:46;;;;;;;4.63;2.42;;;41.30;24.00;;;;;;6250534;28;20078;-76
2021/06/15 11:54:51;;;;;;;4.03;2.00;;;41.30;24.00;;;;;;6265657;28;20036;-77
2021/06/15 11:57:57;;;;;;;3.60;1.95;;;41.30;24.00;;;;;;6255862;28;20059;-75
2021/06/15 12:01:07;;;;;;;5.43;2.20;;;41.30;23.90;;;;;;6275874;28;20033;-75
2021/06/15 12:04:09;;;;;;;7.70;2.13;;;41.30;24.10;;;;;;6247444;28;20072;-76
2021/06/15 12:07:17;;;;;;;5.95;2.30;;;41.40;23.80;;;;;;6256162;28;20071;-75
2021/06/15 12:10:21;;;;;;;13.68;3.13;;;41.20;23.90;;;;;;6275471;28;20386;-76
2021/06/15 12:13:28;;;;;;;2.00;1.80;;;41.30;23.90;;;;;;6276149;28;20462;-77
2021/06/15 12:16:34;;;;;;;3.55;1.92;;;41.20;23.80;;;;;;6257968;28;20035;-76
2021/06/15 12:19:38;;;;;;;6.35;1.88;;;41.20;23.80;;;;;;6274778;28;20043;-75
2021/06/15 12:22:39;;;;;;;3.30;1.88;;;41.20;23.70;;;;;;6277088;28;20357;-75
2021/06/15 12:25:40;;;;;;;8.80;2.60;;;41.30;23.70;;;;;;6264625;28;20036;-76
2021/06/15 12:28:47;;;;;;;9.68;2.05;;;41.70;23.50;;;;;;6275205;28;20060;-76
2021/06/15 12:31:49;;;;;;;;;;;41.90;23.10;;;;;;6256369;28;20094;-76
2021/06/15 12:34:50;;;;;;;9.10;2.30;;;42.10;22.90;;;;;;6244091;28;19912;-75
2021/06/15 12:37:51;;;;;;;3.88;2.00;;;42.10;22.60;;;;;;6260385;28;20052;-76
2021/06/15 12:40:52;;;;;;;5.28;2.17;;;42.00;22.60;;;;;;6260111;28;20041;-76
2021/06/15 12:43:53;;;;;;;2.60;1.80;;;42.00;22.50;;;;;;6242630;28;20041;-76
2021/06/15 12:47:10;;;;;;;5.25;2.15;;;42.10;22.40;;;;;;6243047;28;20165;-75
2021/06/15 12:50:21;;;;;;;7.50;1.92;;;42.00;22.30;;;;;;6242981;28;20112;-76
2021/06/15 12:53:26;;;;;;;17.40;2.60;;;42.20;22.30;;;;;;6243570;28;20037;-76
2021/06/15 12:56:29;;;;;;;5.35;1.90;;;42.50;21.90;;;;;;6243344;28;20038;-75
2021/06/15 12:59:33;;;;;;;3.10;1.70;;;42.80;21.50;;;;;;6270598;28;20028;-75
2021/06/15 13:02:37;;;;;;;4.55;2.10;;;42.70;21.20;;;;;;6247677;28;20109;-75
2021/06/15 13:05:38;;;;;;;5.22;1.77;;;42.70;21.30;;;;;;6249368;28;20107;-75
2021/06/15 13:08:40;;;;;;;7.88;2.63;;;42.90;21.30;;;;;;6276857;28;20040;-76
2021/06/15 13:12:01;;;;;;;6.10;1.70;;;43.40;20.90;;;;;;6276012;28;20033;-76
2021/06/15 13:15:06;;;;;;;9.93;1.90;;;44.00;20.40;;;;;;6277734;28;20031;-76
2021/06/15 13:18:10;;;;;;;4.07;1.85;;;44.50;20.00;;;;;;6278901;28;20041;-76
2021/06/15 13:21:11;;;;;;;2.75;1.85;;;44.70;19.70;;;;;;6296451;28;20118;-75
2021/06/15 13:24:14;;;;;;;4.07;1.92;;;44.90;20.00;;;;;;6279054;28;20366;-75
2021/06/15 13:27:26;;;;;;;3.95;1.98;;;45.20;19.40;;;;;;6270537;28;20056;-75
2021/06/15 13:30:35;;;;;;;10.85;2.40;;;45.60;19.10;;;;;;6270843;28;20395;-74
2021/06/15 13:33:36;;;;;;;10.57;1.92;;;45.80;18.80;;;;;;6247159;28;20029;-75
2021/06/15 13:36:39;;;;;;;5.63;2.33;;;46.10;18.70;;;;;;6274613;28;20132;-75
2021/06/15 13:39:44;;;;;;;5.53;1.63;;;46.30;18.50;;;;;;6295514;28;20084;-77
2021/06/15 13:42:46;;;;;;;7.30;1.88;;;46.60;18.30;;;;;;6280393;28;20450;-75
2021/06/15 13:45:58;;;;;;;3.67;1.90;;;47.10;18.00;;;;;;6263095;28;20381;-75
2021/06/15 13:49:00;;;;;;;5.82;2.20;;;47.20;17.70;;;;;;6279579;28;20120;-75
2021/06/15 13:52:02;;;;;;;2.20;1.70;;;47.00;17.80;;;;;;6267273;28;20037;-76
2021/06/15 13:55:09;;;;;;;8.85;4.32;;;47.10;17.80;;;;;;6272069;28;20413;-75
2021/06/15 13:58:14;;;;;;;3.33;2.00;;;47.20;17.60;;;;;;6254650;28;20470;-75
2021/06/15 14:01:16;;;;;;;2.70;2.30;;;47.40;17.50;;;;;;6254983;28;20033;-75
2021/06/15 14:04:16;;;;;;;3.90;1.77;;;48.00;17.20;;;;;;6236857;28;20454;-75
2021/06/15 14:07:18;;;;;;;2.65;1.70;;;48.60;16.90;;;;;;6263370;28;20072;-75
2021/06/15 14:10:20;;;;;;;2.15;1.73;;;48.80;16.60;;;;;;6279812;28;20051;-76
2021/06/15 14:13:22;;;;;;;4.57;1.77;;;48.80;16.50;;;;;;6262289;28;20086;-76
2021/06/15 14:16:23;;;;;;;5.68;1.92;;;48.90;16.50;;;;;;6279047;28;20043;-76
2021/06/15 14:19:25;;;;;;;5.82;2.15;;;49.10;16.20;;;;;;6294489;28;20032;-76
2021/06/15 14:22:26;;;;;;;5.47;1.65;;;48.80;16.30;;;;;;6295845;28;20067;-76
2021/06/15 14:25:29;;;;;;;4.30;1.85;;;48.80;16.40;;;;;;6290064;28;20457;-76
2021/06/15 14:28:30;;;;;;;3.22;2.10;;;48.80;16.20;;;;;;6312527;28;20024;-75
2021/06/15 14:31:32;;;;;;;3.45;1.70;;;48.80;16.20;;;;;;6262866;28;20039;-74
2021/06/15 14:34:33;;;;;;;3.30;1.73;;;48.80;16.30;;;;;;6252237;28;20033;-76
2021/06/15 14:37:34;;;;;;;4.38;1.75;;;49.20;16.20;;;;;;6237355;28;20029;-76
2021/06/15 14:40:36;;;;;;;1.92;1.65;;;49.60;15.90;;;;;;6271952;28;20472;-76
2021/06/15 14:43:37;;;;;;;1.70;1.40;;;49.60;15.80;;;;;;6253658;28;20385;-75
2021/06/15 14:46:39;;;;;;;5.22;1.67;;;49.40;15.80;;;;;;6253888;28;20098;-76
2021/06/15 14:49:41;;;;;;;5.63;1.50;;;49.30;15.80;;;;;;6237355;28;20477;-75
2021/06/15 14:52:42;;;;;;;2.42;1.65;;;49.30;15.80;;;;;;6253662;28;20428;-76
2021/06/15 14:55:43;;;;;;;3.60;1.40;;;49.40;15.80;;;;;;6253448;28;20098;-75
2021/06/15 14:58:44;;;;;;;1.98;1.63;;;49.50;15.60;;;;;;6259352;28;20040;-76
2021/06/15 15:01:45;;;;;;;1.55;1.40;;;49.60;15.50;;;;;;6294863;28;20385;-76
2021/06/15 15:04:46;;;;;;;4.55;1.42;;;49.40;15.50;;;;;;6270824;28;20059;-76
2021/06/15 15:07:47;;;;;;;2.00;1.63;;;49.20;15.50;;;;;;6272420;28;20148;-75
2021/06/15 15:10:48;;;;;;;3.65;2.33;;;48.80;15.70;;;;;;6260941;28;20063;-75
2021/06/15 15:13:49;;;;;;;2.53;1.60;;;48.60;15.70;;;;;;6263410;28;20385;-76
2021/06/15 15:16:51;;;;;;;6.18;1.45;;;48.60;15.60;;;;;;6248104;28;20082;-76
2021/06/15 15:19:53;;;;;;;3.80;1.40;;;48.60;15.60;;;;;;6272340;28;20067;-76
2021/06/15 15:22:54;;;;;;;8.63;1.67;;;48.40;15.70;;;;;;6263810;28;20107;-75
2021/06/15 15:25:56;;;;;;;2.55;1.40;;;48.00;15.80;;;;;;6265097;28;20454;-76
2021/06/15 15:29:01;;;;;;;8.35;2.08;;;47.60;16.00;;;;;;6267704;28;20460;-75
2021/06/15 15:32:02;;;;;;;4.95;1.42;;;47.20;16.10;;;;;;6243510;28;20481;-75
2021/06/15 15:35:06;;;;;;;2.58;1.30;;;46.90;16.30;;;;;;6259999;28;20355;-77
2021/06/15 15:38:07;;;;;;;1.60;1.30;;;46.90;16.80;;;;;;6237142;28;20102;-75
2021/06/15 15:41:08;;;;;;;2.33;1.27;;;46.70;16.40;;;;;;6254202;28;20446;-75
2021/06/15 15:44:10;;;;;;;2.40;1.30;;;46.80;16.30;;;;;;6248726;28;20084;-76
2021/06/15 15:47:11;;;;;;;1.90;1.05;;;46.90;16.30;;;;;;6254510;28;20040;-76
2021/06/15 15:50:13;;;;;;;4.15;1.45;;;46.90;16.20;;;;;;6270546;28;20049;-76
2021/06/15 15:53:15;;;;;;;3.50;1.88;;;46.80;16.20;;;;;;6271453;28;20036;-76
2021/06/15 15:56:16;;;;;;;2.22;1.30;;;46.80;16.20;;;;;;6287190;28;20462;-76
2021/06/15 15:59:17;;;;;;;2.05;1.35;;;46.60;16.20;;;;;;6262671;28;20043;-76
2021/06/15 16:02:18;;;;;;;2.38;1.60;;;46.50;16.20;;;;;;6287616;28;20040;-76